sensor_id;sensor_type;location;lat;lon;timestamp;P1;durP1;ratioP1;P2;durP2;ratioP2
55069;SDS011;40967;52.070;8.596;2023-04-15T00:00:06;1.53;;;0.87;;
55069;SDS011;40967;52.070;8.596;2023-04-15T00:02:32;1.10;;;0.60;;
55069;SDS011;40967;52.070;8.596;2023-04-15T00:04:57;1.30;;;0.73;;
55069;SDS011;40967;52.070;8.596;2023-04-15T00:07:23;1.33;;;0.80;;
55069;SDS011;40967;52.070;8.596;2023-04-15T00:09:48;1.58;;;0.80;;
55069;SDS011;40967;52.070;8.596;2023-04-15T00:12:13;1.47;;;0.80;;
55069;SDS011;40967;52.070;8.596;2023-04-15T00:14:39;1.73;;;0.80;;
55069;SDS011;40967;52.070;8.596;2023-04-15T00:17:04;2.10;;;0.97;;
55069;SDS011;40967;52.070;8.596;2023-04-15T00:19:30;1.70;;;1.00;;
55069;SDS011;40967;52.070;8.596;2023-04-15T00:21:55;1.60;;;0.90;;
55069;SDS011;40967;52.070;8.596;2023-04-15T00:24:21;2.00;;;1.00;;
55069;SDS011;40967;52.070;8.596;2023-04-15T00:26:47;1.33;;;0.90;;
55069;SDS011;40967;52.070;8.596;2023-04-15T00:29:13;2.50;;;1.00;;
55069;SDS011;40967;52.070;8.596;2023-04-15T00:31:39;2.20;;;1.10;;
55069;SDS011;40967;52.070;8.596;2023-04-15T00:34:06;1.77;;;1.00;;
55069;SDS011;40967;52.070;8.596;2023-04-15T00:36:31;1.70;;;1.00;;
55069;SDS011;40967;52.070;8.596;2023-04-15T00:38:58;2.20;;;1.00;;
55069;SDS011;40967;52.070;8.596;2023-04-15T00:41:26;2.20;;;1.00;;
55069;SDS011;40967;52.070;8.596;2023-04-15T00:43:51;1.90;;;1.02;;
55069;SDS011;40967;52.070;8.596;2023-04-15T00:46:17;1.93;;;1.07;;
55069;SDS011;40967;52.070;8.596;2023-04-15T00:48:44;1.67;;;0.90;;
55069;SDS011;40967;52.070;8.596;2023-04-15T00:51:11;1.50;;;0.90;;
55069;SDS011;40967;52.070;8.596;2023-04-15T00:53:37;2.25;;;1.20;;
55069;SDS011;40967;52.070;8.596;2023-04-15T00:56:02;2.27;;;1.20;;
55069;SDS011;40967;52.070;8.596;2023-04-15T00:58:28;2.55;;;1.35;;
55069;SDS011;40967;52.070;8.596;2023-04-15T01:00:54;2.87;;;1.50;;
55069;SDS011;40967;52.070;8.596;2023-04-15T01:03:20;2.97;;;1.50;;
55069;SDS011;40967;52.070;8.596;2023-04-15T01:05:45;2.90;;;1.50;;
55069;SDS011;40967;52.070;8.596;2023-04-15T01:08:11;2.67;;;1.40;;
55069;SDS011;40967;52.070;8.596;2023-04-15T01:10:37;3.30;;;1.53;;
55069;SDS011;40967;52.070;8.596;2023-04-15T01:13:03;3.30;;;1.63;;
55069;SDS011;40967;52.070;8.596;2023-04-15T01:15:29;2.90;;;1.53;;
55069;SDS011;40967;52.070;8.596;2023-04-15T01:17:58;2.93;;;1.70;;
55069;SDS011;40967;52.070;8.596;2023-04-15T01:20:23;2.78;;;1.60;;
55069;SDS011;40967;52.070;8.596;2023-04-15T01:22:49;4.00;;;1.80;;
55069;SDS011;40967;52.070;8.596;2023-04-15T01:25:18;3.38;;;1.83;;
55069;SDS011;40967;52.070;8.596;2023-04-15T01:27:44;3.15;;;1.85;;
55069;SDS011;40967;52.070;8.596;2023-04-15T01:30:10;3.35;;;2.00;;
55069;SDS011;40967;52.070;8.596;2023-04-15T01:32:36;3.27;;;1.70;;
55069;SDS011;40967;52.070;8.596;2023-04-15T01:35:01;2.97;;;1.75;;
55069;SDS011;40967;52.070;8.596;2023-04-15T01:37:27;3.60;;;2.00;;
55069;SDS011;40967;52.070;8.596;2023-04-15T01:39:53;3.65;;;1.85;;
55069;SDS011;40967;52.070;8.596;2023-04-15T01:42:20;4.30;;;1.90;;
55069;SDS011;40967;52.070;8.596;2023-04-15T01:44:45;3.17;;;1.75;;
55069;SDS011;40967;52.070;8.596;2023-04-15T01:47:11;2.88;;;1.70;;
55069;SDS011;40967;52.070;8.596;2023-04-15T01:49:40;3.07;;;1.60;;
55069;SDS011;40967;52.070;8.596;2023-04-15T01:52:05;3.15;;;1.50;;
55069;SDS011;40967;52.070;8.596;2023-04-15T01:54:35;3.17;;;1.60;;
55069;SDS011;40967;52.070;8.596;2023-04-15T01:57:00;3.63;;;1.65;;
55069;SDS011;40967;52.070;8.596;2023-04-15T01:59:26;2.28;;;1.40;;
55069;SDS011;40967;52.070;8.596;2023-04-15T02:01:51;2.73;;;1.60;;
55069;SDS011;40967;52.070;8.596;2023-04-15T02:04:17;2.97;;;1.70;;
55069;SDS011;40967;52.070;8.596;2023-04-15T02:06:42;2.90;;;1.70;;
55069;SDS011;40967;52.070;8.596;2023-04-15T02:09:08;3.20;;;1.50;;
55069;SDS011;40967;52.070;8.596;2023-04-15T02:11:34;3.03;;;1.40;;
55069;SDS011;40967;52.070;8.596;2023-04-15T02:14:01;3.10;;;1.77;;
55069;SDS011;40967;52.070;8.596;2023-04-15T02:16:28;3.03;;;1.58;;
55069;SDS011;40967;52.070;8.596;2023-04-15T02:18:54;2.63;;;1.45;;
55069;SDS011;40967;52.070;8.596;2023-04-15T02:21:19;3.00;;;1.50;;
55069;SDS011;40967;52.070;8.596;2023-04-15T02:23:45;3.38;;;1.80;;
55069;SDS011;40967;52.070;8.596;2023-04-15T02:26:12;2.92;;;1.60;;
55069;SDS011;40967;52.070;8.596;2023-04-15T02:28:38;3.10;;;1.65;;
55069;SDS011;40967;52.070;8.596;2023-04-15T02:31:06;3.17;;;1.73;;
55069;SDS011;40967;52.070;8.596;2023-04-15T02:33:32;2.55;;;1.50;;
55069;SDS011;40967;52.070;8.596;2023-04-15T02:35:58;2.50;;;1.40;;
55069;SDS011;40967;52.070;8.596;2023-04-15T02:38:26;3.38;;;1.73;;
55069;SDS011;40967;52.070;8.596;2023-04-15T02:40:51;2.90;;;1.60;;
55069;SDS011;40967;52.070;8.596;2023-04-15T02:43:17;2.80;;;1.40;;
55069;SDS011;40967;52.070;8.596;2023-04-15T02:45:42;3.00;;;1.40;;
55069;SDS011;40967;52.070;8.596;2023-04-15T02:48:09;3.00;;;1.50;;
55069;SDS011;40967;52.070;8.596;2023-04-15T02:50:35;3.30;;;1.50;;
55069;SDS011;40967;52.070;8.596;2023-04-15T02:53:03;3.10;;;1.67;;
55069;SDS011;40967;52.070;8.596;2023-04-15T02:55:29;2.45;;;1.45;;
55069;SDS011;40967;52.070;8.596;2023-04-15T02:57:55;2.70;;;1.40;;
55069;SDS011;40967;52.070;8.596;2023-04-15T03:00:22;2.85;;;1.50;;
55069;SDS011;40967;52.070;8.596;2023-04-15T03:02:49;3.08;;;1.60;;
55069;SDS011;40967;52.070;8.596;2023-04-15T03:05:20;2.97;;;1.65;;
55069;SDS011;40967;52.070;8.596;2023-04-15T03:07:48;3.50;;;1.60;;
55069;SDS011;40967;52.070;8.596;2023-04-15T03:10:14;3.58;;;1.83;;
55069;SDS011;40967;52.070;8.596;2023-04-15T03:12:39;3.13;;;1.60;;
55069;SDS011;40967;52.070;8.596;2023-04-15T03:15:05;3.40;;;1.60;;
55069;SDS011;40967;52.070;8.596;2023-04-15T03:17:31;3.28;;;1.67;;
55069;SDS011;40967;52.070;8.596;2023-04-15T03:19:56;3.07;;;1.50;;
55069;SDS011;40967;52.070;8.596;2023-04-15T03:22:21;3.75;;;1.75;;
55069;SDS011;40967;52.070;8.596;2023-04-15T03:24:47;2.67;;;1.50;;
55069;SDS011;40967;52.070;8.596;2023-04-15T03:27:12;2.50;;;1.40;;
55069;SDS011;40967;52.070;8.596;2023-04-15T03:29:38;2.50;;;1.40;;
55069;SDS011;40967;52.070;8.596;2023-04-15T03:32:03;3.07;;;1.70;;
55069;SDS011;40967;52.070;8.596;2023-04-15T03:34:28;3.33;;;1.70;;
55069;SDS011;40967;52.070;8.596;2023-04-15T03:36:54;3.63;;;1.97;;
55069;SDS011;40967;52.070;8.596;2023-04-15T03:39:20;3.25;;;1.70;;
55069;SDS011;40967;52.070;8.596;2023-04-15T03:41:45;3.33;;;1.80;;
55069;SDS011;40967;52.070;8.596;2023-04-15T03:44:11;3.33;;;1.88;;
55069;SDS011;40967;52.070;8.596;2023-04-15T03:46:36;3.47;;;1.90;;
55069;SDS011;40967;52.070;8.596;2023-04-15T03:49:02;3.70;;;2.03;;
55069;SDS011;40967;52.070;8.596;2023-04-15T03:51:27;3.65;;;2.10;;
55069;SDS011;40967;52.070;8.596;2023-04-15T03:53:53;3.57;;;1.80;;
55069;SDS011;40967;52.070;8.596;2023-04-15T03:56:18;3.90;;;2.00;;
55069;SDS011;40967;52.070;8.596;2023-04-15T03:58:47;3.77;;;1.90;;
55069;SDS011;40967;52.070;8.596;2023-04-15T04:01:12;3.40;;;1.80;;
55069;SDS011;40967;52.070;8.596;2023-04-15T04:03:37;2.80;;;1.57;;
55069;SDS011;40967;52.070;8.596;2023-04-15T04:06:03;2.63;;;1.40;;
55069;SDS011;40967;52.070;8.596;2023-04-15T04:08:28;2.35;;;1.40;;
55069;SDS011;40967;52.070;8.596;2023-04-15T04:10:54;2.20;;;1.30;;
55069;SDS011;40967;52.070;8.596;2023-04-15T04:13:19;2.30;;;1.30;;
55069;SDS011;40967;52.070;8.596;2023-04-15T04:15:44;2.53;;;1.47;;
55069;SDS011;40967;52.070;8.596;2023-04-15T04:18:10;2.70;;;1.58;;
55069;SDS011;40967;52.070;8.596;2023-04-15T04:20:35;3.10;;;1.60;;
55069;SDS011;40967;52.070;8.596;2023-04-15T04:23:01;3.00;;;1.70;;
55069;SDS011;40967;52.070;8.596;2023-04-15T04:25:26;2.90;;;1.50;;
55069;SDS011;40967;52.070;8.596;2023-04-15T04:27:52;2.97;;;1.60;;
55069;SDS011;40967;52.070;8.596;2023-04-15T04:30:17;5.17;;;2.50;;
55069;SDS011;40967;52.070;8.596;2023-04-15T04:32:43;3.47;;;2.00;;
55069;SDS011;40967;52.070;8.596;2023-04-15T04:35:08;3.43;;;2.07;;
55069;SDS011;40967;52.070;8.596;2023-04-15T04:37:33;4.47;;;2.57;;
55069;SDS011;40967;52.070;8.596;2023-04-15T04:39:59;4.33;;;2.50;;
55069;SDS011;40967;52.070;8.596;2023-04-15T04:42:24;4.32;;;2.30;;
55069;SDS011;40967;52.070;8.596;2023-04-15T04:44:50;4.17;;;2.33;;
55069;SDS011;40967;52.070;8.596;2023-04-15T04:47:15;4.87;;;2.67;;
55069;SDS011;40967;52.070;8.596;2023-04-15T04:49:41;4.43;;;2.35;;
55069;SDS011;40967;52.070;8.596;2023-04-15T04:52:06;4.33;;;2.23;;
55069;SDS011;40967;52.070;8.596;2023-04-15T04:54:32;4.50;;;2.40;;
55069;SDS011;40967;52.070;8.596;2023-04-15T04:56:57;4.40;;;2.42;;
55069;SDS011;40967;52.070;8.596;2023-04-15T04:59:23;5.17;;;2.70;;
55069;SDS011;40967;52.070;8.596;2023-04-15T05:01:48;5.07;;;2.85;;
55069;SDS011;40967;52.070;8.596;2023-04-15T05:04:14;4.72;;;2.83;;
55069;SDS011;40967;52.070;8.596;2023-04-15T05:06:40;5.30;;;3.07;;
55069;SDS011;40967;52.070;8.596;2023-04-15T05:09:05;5.37;;;3.10;;
55069;SDS011;40967;52.070;8.596;2023-04-15T05:11:31;5.72;;;2.90;;
55069;SDS011;40967;52.070;8.596;2023-04-15T05:13:56;4.80;;;2.80;;
55069;SDS011;40967;52.070;8.596;2023-04-15T05:16:23;7.50;;;4.45;;
55069;SDS011;40967;52.070;8.596;2023-04-15T05:18:49;6.90;;;3.90;;
55069;SDS011;40967;52.070;8.596;2023-04-15T05:21:16;6.57;;;3.60;;
55069;SDS011;40967;52.070;8.596;2023-04-15T05:23:41;6.40;;;3.73;;
55069;SDS011;40967;52.070;8.596;2023-04-15T05:26:06;6.03;;;3.40;;
55069;SDS011;40967;52.070;8.596;2023-04-15T05:28:32;5.50;;;3.10;;
55069;SDS011;40967;52.070;8.596;2023-04-15T05:30:57;5.70;;;3.53;;
55069;SDS011;40967;52.070;8.596;2023-04-15T05:33:23;6.60;;;3.90;;
55069;SDS011;40967;52.070;8.596;2023-04-15T05:35:51;7.63;;;4.60;;
55069;SDS011;40967;52.070;8.596;2023-04-15T05:38:17;7.65;;;4.53;;
55069;SDS011;40967;52.070;8.596;2023-04-15T05:40:42;6.73;;;4.07;;
55069;SDS011;40967;52.070;8.596;2023-04-15T05:43:07;6.75;;;4.07;;
55069;SDS011;40967;52.070;8.596;2023-04-15T05:45:33;7.67;;;4.20;;
55069;SDS011;40967;52.070;8.596;2023-04-15T05:47:58;6.77;;;4.27;;
55069;SDS011;40967;52.070;8.596;2023-04-15T05:50:27;6.30;;;3.87;;
55069;SDS011;40967;52.070;8.596;2023-04-15T05:52:52;6.65;;;4.10;;
55069;SDS011;40967;52.070;8.596;2023-04-15T05:55:17;5.97;;;3.70;;
55069;SDS011;40967;52.070;8.596;2023-04-15T05:57:43;7.10;;;3.70;;
55069;SDS011;40967;52.070;8.596;2023-04-15T06:00:08;6.57;;;3.70;;
55069;SDS011;40967;52.070;8.596;2023-04-15T06:02:34;6.13;;;3.70;;
55069;SDS011;40967;52.070;8.596;2023-04-15T06:05:00;6.10;;;3.65;;
55069;SDS011;40967;52.070;8.596;2023-04-15T06:07:25;5.93;;;3.53;;
55069;SDS011;40967;52.070;8.596;2023-04-15T06:09:51;7.10;;;4.33;;
55069;SDS011;40967;52.070;8.596;2023-04-15T06:12:16;7.20;;;4.10;;
55069;SDS011;40967;52.070;8.596;2023-04-15T06:14:41;6.53;;;3.93;;
55069;SDS011;40967;52.070;8.596;2023-04-15T06:17:07;7.03;;;4.30;;
55069;SDS011;40967;52.070;8.596;2023-04-15T06:19:33;8.60;;;5.18;;
55069;SDS011;40967;52.070;8.596;2023-04-15T06:21:59;8.25;;;5.10;;
55069;SDS011;40967;52.070;8.596;2023-04-15T06:24:25;7.05;;;4.55;;
55069;SDS011;40967;52.070;8.596;2023-04-15T06:26:50;8.43;;;5.13;;
55069;SDS011;40967;52.070;8.596;2023-04-15T06:29:16;11.30;;;6.80;;
55069;SDS011;40967;52.070;8.596;2023-04-15T06:31:41;7.72;;;4.82;;
55069;SDS011;40967;52.070;8.596;2023-04-15T06:34:07;8.67;;;5.30;;
55069;SDS011;40967;52.070;8.596;2023-04-15T06:36:32;9.33;;;5.87;;
55069;SDS011;40967;52.070;8.596;2023-04-15T06:38:58;10.10;;;6.57;;
55069;SDS011;40967;52.070;8.596;2023-04-15T06:41:23;13.13;;;7.22;;
55069;SDS011;40967;52.070;8.596;2023-04-15T06:43:48;11.47;;;6.87;;
55069;SDS011;40967;52.070;8.596;2023-04-15T06:46:14;10.45;;;6.85;;
55069;SDS011;40967;52.070;8.596;2023-04-15T06:48:40;12.80;;;8.13;;
55069;SDS011;40967;52.070;8.596;2023-04-15T06:51:05;14.53;;;9.23;;
55069;SDS011;40967;52.070;8.596;2023-04-15T06:53:31;13.38;;;8.27;;
55069;SDS011;40967;52.070;8.596;2023-04-15T06:55:56;15.33;;;9.43;;
55069;SDS011;40967;52.070;8.596;2023-04-15T06:58:22;16.30;;;10.00;;
55069;SDS011;40967;52.070;8.596;2023-04-15T07:00:47;13.40;;;9.07;;
55069;SDS011;40967;52.070;8.596;2023-04-15T07:03:13;15.38;;;8.98;;
55069;SDS011;40967;52.070;8.596;2023-04-15T07:05:39;15.52;;;9.25;;
55069;SDS011;40967;52.070;8.596;2023-04-15T07:08:05;14.68;;;8.90;;
55069;SDS011;40967;52.070;8.596;2023-04-15T07:10:32;14.68;;;8.68;;
55069;SDS011;40967;52.070;8.596;2023-04-15T07:12:58;18.08;;;10.32;;
55069;SDS011;40967;52.070;8.596;2023-04-15T07:15:23;15.30;;;8.30;;
55069;SDS011;40967;52.070;8.596;2023-04-15T07:17:49;13.85;;;8.27;;
55069;SDS011;40967;52.070;8.596;2023-04-15T07:20:14;13.70;;;7.40;;
55069;SDS011;40967;52.070;8.596;2023-04-15T07:22:40;18.00;;;10.10;;
55069;SDS011;40967;52.070;8.596;2023-04-15T07:25:05;14.10;;;8.20;;
55069;SDS011;40967;52.070;8.596;2023-04-15T07:27:31;14.40;;;7.53;;
55069;SDS011;40967;52.070;8.596;2023-04-15T07:29:57;12.82;;;7.57;;
55069;SDS011;40967;52.070;8.596;2023-04-15T07:32:22;17.37;;;9.30;;
55069;SDS011;40967;52.070;8.596;2023-04-15T07:34:48;15.30;;;8.40;;
55069;SDS011;40967;52.070;8.596;2023-04-15T07:37:13;15.47;;;8.57;;
55069;SDS011;40967;52.070;8.596;2023-04-15T07:39:39;12.93;;;7.15;;
55069;SDS011;40967;52.070;8.596;2023-04-15T07:42:04;12.30;;;6.97;;
55069;SDS011;40967;52.070;8.596;2023-04-15T07:44:30;10.03;;;5.43;;
55069;SDS011;40967;52.070;8.596;2023-04-15T07:46:56;8.63;;;4.90;;
55069;SDS011;40967;52.070;8.596;2023-04-15T07:49:21;11.17;;;5.97;;
55069;SDS011;40967;52.070;8.596;2023-04-15T07:51:47;9.88;;;5.10;;
55069;SDS011;40967;52.070;8.596;2023-04-15T07:54:13;11.03;;;6.07;;
55069;SDS011;40967;52.070;8.596;2023-04-15T07:56:39;12.25;;;6.60;;
55069;SDS011;40967;52.070;8.596;2023-04-15T07:59:05;9.18;;;4.88;;
55069;SDS011;40967;52.070;8.596;2023-04-15T08:01:30;9.90;;;5.70;;
55069;SDS011;40967;52.070;8.596;2023-04-15T08:03:57;8.45;;;5.05;;
55069;SDS011;40967;52.070;8.596;2023-04-15T08:06:23;9.20;;;5.25;;
55069;SDS011;40967;52.070;8.596;2023-04-15T08:08:48;8.20;;;4.93;;
55069;SDS011;40967;52.070;8.596;2023-04-15T08:11:14;8.50;;;5.10;;
55069;SDS011;40967;52.070;8.596;2023-04-15T08:13:41;7.63;;;4.32;;
55069;SDS011;40967;52.070;8.596;2023-04-15T08:16:20;6.53;;;3.83;;
55069;SDS011;40967;52.070;8.596;2023-04-15T08:18:47;7.20;;;3.78;;
55069;SDS011;40967;52.070;8.596;2023-04-15T08:21:14;6.65;;;3.83;;
55069;SDS011;40967;52.070;8.596;2023-04-15T08:23:40;6.95;;;3.90;;
55069;SDS011;40967;52.070;8.596;2023-04-15T08:26:07;8.23;;;4.22;;
55069;SDS011;40967;52.070;8.596;2023-04-15T08:28:33;7.50;;;4.27;;
55069;SDS011;40967;52.070;8.596;2023-04-15T08:30:59;6.15;;;3.55;;
55069;SDS011;40967;52.070;8.596;2023-04-15T08:33:24;7.27;;;3.93;;
55069;SDS011;40967;52.070;8.596;2023-04-15T08:35:50;6.90;;;3.90;;
55069;SDS011;40967;52.070;8.596;2023-04-15T08:38:15;6.70;;;3.87;;
55069;SDS011;40967;52.070;8.596;2023-04-15T08:40:42;8.30;;;5.18;;
55069;SDS011;40967;52.070;8.596;2023-04-15T08:43:14;6.97;;;4.50;;
55069;SDS011;40967;52.070;8.596;2023-04-15T08:45:45;8.77;;;5.07;;
55069;SDS011;40967;52.070;8.596;2023-04-15T08:48:14;6.50;;;4.00;;
55069;SDS011;40967;52.070;8.596;2023-04-15T08:50:42;7.07;;;4.30;;
55069;SDS011;40967;52.070;8.596;2023-04-15T08:53:08;5.57;;;3.27;;
55069;SDS011;40967;52.070;8.596;2023-04-15T08:55:35;6.80;;;4.32;;
55069;SDS011;40967;52.070;8.596;2023-04-15T08:58:03;6.30;;;3.85;;
55069;SDS011;40967;52.070;8.596;2023-04-15T09:00:30;7.32;;;4.40;;
55069;SDS011;40967;52.070;8.596;2023-04-15T09:02:57;5.93;;;3.25;;
55069;SDS011;40967;52.070;8.596;2023-04-15T09:05:23;6.50;;;3.88;;
55069;SDS011;40967;52.070;8.596;2023-04-15T09:07:52;5.77;;;3.40;;
55069;SDS011;40967;52.070;8.596;2023-04-15T09:10:17;7.13;;;4.60;;
55069;SDS011;40967;52.070;8.596;2023-04-15T09:12:42;6.38;;;3.90;;
55069;SDS011;40967;52.070;8.596;2023-04-15T09:15:11;7.80;;;4.83;;
55069;SDS011;40967;52.070;8.596;2023-04-15T09:17:41;6.90;;;4.10;;
55069;SDS011;40967;52.070;8.596;2023-04-15T09:20:10;7.20;;;4.63;;
55069;SDS011;40967;52.070;8.596;2023-04-15T09:22:38;6.50;;;3.92;;
55069;SDS011;40967;52.070;8.596;2023-04-15T09:25:38;6.93;;;4.07;;
55069;SDS011;40967;52.070;8.596;2023-04-15T09:27:58;7.20;;;4.15;;
55069;SDS011;40967;52.070;8.596;2023-04-15T09:30:28;6.38;;;4.10;;
55069;SDS011;40967;52.070;8.596;2023-04-15T09:32:55;6.20;;;3.80;;
55069;SDS011;40967;52.070;8.596;2023-04-15T09:35:22;7.28;;;4.00;;
55069;SDS011;40967;52.070;8.596;2023-04-15T09:37:49;5.63;;;3.45;;
55069;SDS011;40967;52.070;8.596;2023-04-15T09:40:36;5.13;;;3.20;;
55069;SDS011;40967;52.070;8.596;2023-04-15T09:43:05;4.90;;;2.83;;
55069;SDS011;40967;52.070;8.596;2023-04-15T09:45:31;4.80;;;3.03;;
55069;SDS011;40967;52.070;8.596;2023-04-15T09:47:59;5.82;;;3.40;;
55069;SDS011;40967;52.070;8.596;2023-04-15T09:50:40;5.70;;;3.63;;
55069;SDS011;40967;52.070;8.596;2023-04-15T09:53:08;5.10;;;3.13;;
55069;SDS011;40967;52.070;8.596;2023-04-15T09:55:35;5.95;;;3.40;;
55069;SDS011;40967;52.070;8.596;2023-04-15T09:58:00;5.03;;;3.22;;
55069;SDS011;40967;52.070;8.596;2023-04-15T10:00:25;4.57;;;2.80;;
55069;SDS011;40967;52.070;8.596;2023-04-15T10:02:53;6.32;;;3.28;;
55069;SDS011;40967;52.070;8.596;2023-04-15T10:05:19;5.00;;;2.90;;
55069;SDS011;40967;52.070;8.596;2023-04-15T10:07:45;5.00;;;2.72;;
55069;SDS011;40967;52.070;8.596;2023-04-15T10:10:11;4.90;;;2.60;;
55069;SDS011;40967;52.070;8.596;2023-04-15T10:12:38;4.20;;;2.33;;
55069;SDS011;40967;52.070;8.596;2023-04-15T10:15:05;3.80;;;2.27;;
55069;SDS011;40967;52.070;8.596;2023-04-15T10:17:36;4.57;;;2.60;;
55069;SDS011;40967;52.070;8.596;2023-04-15T10:20:03;3.60;;;2.13;;
55069;SDS011;40967;52.070;8.596;2023-04-15T10:22:30;5.00;;;2.70;;
55069;SDS011;40967;52.070;8.596;2023-04-15T10:24:57;3.90;;;2.20;;
55069;SDS011;40967;52.070;8.596;2023-04-15T10:27:24;4.15;;;2.38;;
55069;SDS011;40967;52.070;8.596;2023-04-15T10:29:51;3.13;;;1.80;;
55069;SDS011;40967;52.070;8.596;2023-04-15T10:32:18;4.05;;;2.40;;
55069;SDS011;40967;52.070;8.596;2023-04-15T10:34:45;3.95;;;2.30;;
55069;SDS011;40967;52.070;8.596;2023-04-15T10:37:18;3.97;;;2.35;;
55069;SDS011;40967;52.070;8.596;2023-04-15T10:39:45;3.35;;;1.95;;
55069;SDS011;40967;52.070;8.596;2023-04-15T10:42:11;3.30;;;1.70;;
55069;SDS011;40967;52.070;8.596;2023-04-15T10:44:40;3.80;;;2.30;;
55069;SDS011;40967;52.070;8.596;2023-04-15T10:47:14;3.78;;;2.05;;
55069;SDS011;40967;52.070;8.596;2023-04-15T10:49:51;3.67;;;2.10;;
55069;SDS011;40967;52.070;8.596;2023-04-15T10:52:23;3.67;;;2.03;;
55069;SDS011;40967;52.070;8.596;2023-04-15T10:57:36;3.58;;;2.10;;
55069;SDS011;40967;52.070;8.596;2023-04-15T11:02:42;5.10;;;2.78;;
55069;SDS011;40967;52.070;8.596;2023-04-15T11:05:12;3.78;;;2.30;;
55069;SDS011;40967;52.070;8.596;2023-04-15T11:13:01;3.80;;;2.40;;
55069;SDS011;40967;52.070;8.596;2023-04-15T11:23:16;3.80;;;2.25;;
55069;SDS011;40967;52.070;8.596;2023-04-15T11:25:43;3.33;;;2.00;;
55069;SDS011;40967;52.070;8.596;2023-04-15T11:28:12;4.03;;;2.42;;
55069;SDS011;40967;52.070;8.596;2023-04-15T11:30:38;3.70;;;2.38;;
55069;SDS011;40967;52.070;8.596;2023-04-15T11:33:05;4.10;;;2.50;;
55069;SDS011;40967;52.070;8.596;2023-04-15T11:35:34;4.35;;;2.22;;
55069;SDS011;40967;52.070;8.596;2023-04-15T11:38:03;3.85;;;2.22;;
55069;SDS011;40967;52.070;8.596;2023-04-15T11:40:30;4.13;;;2.80;;
55069;SDS011;40967;52.070;8.596;2023-04-15T11:45:31;3.88;;;2.35;;
55069;SDS011;40967;52.070;8.596;2023-04-15T11:48:06;4.77;;;2.93;;
55069;SDS011;40967;52.070;8.596;2023-04-15T11:50:34;3.78;;;2.20;;
55069;SDS011;40967;52.070;8.596;2023-04-15T11:53:04;3.10;;;1.90;;
55069;SDS011;40967;52.070;8.596;2023-04-15T11:58:34;3.80;;;2.58;;
55069;SDS011;40967;52.070;8.596;2023-04-15T12:01:04;3.67;;;2.22;;
55069;SDS011;40967;52.070;8.596;2023-04-15T12:03:40;2.97;;;1.88;;
55069;SDS011;40967;52.070;8.596;2023-04-15T12:13:53;3.17;;;1.70;;
55069;SDS011;40967;52.070;8.596;2023-04-15T12:16:22;3.40;;;2.30;;
55069;SDS011;40967;52.070;8.596;2023-04-15T12:18:52;3.10;;;1.90;;
55069;SDS011;40967;52.070;8.596;2023-04-15T12:21:35;2.88;;;1.80;;
55069;SDS011;40967;52.070;8.596;2023-04-15T12:24:03;2.58;;;1.80;;
55069;SDS011;40967;52.070;8.596;2023-04-15T12:26:34;2.47;;;1.60;;
55069;SDS011;40967;52.070;8.596;2023-04-15T12:29:05;3.33;;;1.80;;
55069;SDS011;40967;52.070;8.596;2023-04-15T12:31:33;2.58;;;1.70;;
55069;SDS011;40967;52.070;8.596;2023-04-15T12:34:01;3.55;;;2.25;;
55069;SDS011;40967;52.070;8.596;2023-04-15T12:36:29;2.85;;;1.73;;
55069;SDS011;40967;52.070;8.596;2023-04-15T12:39:00;3.03;;;2.03;;
55069;SDS011;40967;52.070;8.596;2023-04-15T12:41:26;3.78;;;2.10;;
55069;SDS011;40967;52.070;8.596;2023-04-15T12:43:51;2.23;;;1.50;;
55069;SDS011;40967;52.070;8.596;2023-04-15T12:46:16;2.35;;;1.50;;
55069;SDS011;40967;52.070;8.596;2023-04-15T12:48:42;2.47;;;1.60;;
55069;SDS011;40967;52.070;8.596;2023-04-15T12:51:08;3.05;;;1.75;;
55069;SDS011;40967;52.070;8.596;2023-04-15T12:53:33;3.10;;;1.70;;
55069;SDS011;40967;52.070;8.596;2023-04-15T12:55:59;3.30;;;1.83;;
55069;SDS011;40967;52.070;8.596;2023-04-15T12:58:24;2.87;;;1.87;;
55069;SDS011;40967;52.070;8.596;2023-04-15T13:00:49;3.30;;;2.07;;
55069;SDS011;40967;52.070;8.596;2023-04-15T13:03:15;2.90;;;1.73;;
55069;SDS011;40967;52.070;8.596;2023-04-15T13:05:41;3.40;;;2.10;;
55069;SDS011;40967;52.070;8.596;2023-04-15T13:08:07;2.95;;;1.95;;
55069;SDS011;40967;52.070;8.596;2023-04-15T13:10:34;2.55;;;1.50;;
55069;SDS011;40967;52.070;8.596;2023-04-15T13:13:03;2.80;;;1.73;;
55069;SDS011;40967;52.070;8.596;2023-04-15T13:15:29;2.13;;;1.40;;
55069;SDS011;40967;52.070;8.596;2023-04-15T13:17:55;3.43;;;1.80;;
55069;SDS011;40967;52.070;8.596;2023-04-15T13:20:20;3.25;;;2.08;;
55069;SDS011;40967;52.070;8.596;2023-04-15T13:22:46;3.23;;;1.73;;
55069;SDS011;40967;52.070;8.596;2023-04-15T13:25:11;3.37;;;2.03;;
55069;SDS011;40967;52.070;8.596;2023-04-15T13:27:37;3.28;;;2.13;;
55069;SDS011;40967;52.070;8.596;2023-04-15T13:30:03;3.17;;;1.93;;
55069;SDS011;40967;52.070;8.596;2023-04-15T13:32:29;3.78;;;2.17;;
55069;SDS011;40967;52.070;8.596;2023-04-15T13:34:54;4.10;;;2.50;;
55069;SDS011;40967;52.070;8.596;2023-04-15T13:37:24;3.90;;;2.30;;
55069;SDS011;40967;52.070;8.596;2023-04-15T13:39:51;3.42;;;2.00;;
55069;SDS011;40967;52.070;8.596;2023-04-15T13:42:17;3.73;;;2.27;;
55069;SDS011;40967;52.070;8.596;2023-04-15T13:44:42;2.77;;;1.80;;
55069;SDS011;40967;52.070;8.596;2023-04-15T13:47:07;4.60;;;2.70;;
55069;SDS011;40967;52.070;8.596;2023-04-15T13:49:33;4.50;;;2.70;;
55069;SDS011;40967;52.070;8.596;2023-04-15T13:51:58;4.15;;;2.60;;
55069;SDS011;40967;52.070;8.596;2023-04-15T13:54:24;4.87;;;3.17;;
55069;SDS011;40967;52.070;8.596;2023-04-15T13:56:49;4.97;;;2.93;;
55069;SDS011;40967;52.070;8.596;2023-04-15T13:59:15;5.30;;;2.77;;
55069;SDS011;40967;52.070;8.596;2023-04-15T14:01:40;5.30;;;3.10;;
55069;SDS011;40967;52.070;8.596;2023-04-15T14:04:05;5.73;;;2.70;;
55069;SDS011;40967;52.070;8.596;2023-04-15T14:06:31;6.33;;;3.87;;
55069;SDS011;40967;52.070;8.596;2023-04-15T14:08:56;5.38;;;3.20;;
55069;SDS011;40967;52.070;8.596;2023-04-15T14:11:22;5.70;;;3.10;;
55069;SDS011;40967;52.070;8.596;2023-04-15T14:13:47;4.73;;;2.73;;
55069;SDS011;40967;52.070;8.596;2023-04-15T14:16:12;5.10;;;3.00;;
55069;SDS011;40967;52.070;8.596;2023-04-15T14:18:38;4.60;;;2.77;;
55069;SDS011;40967;52.070;8.596;2023-04-15T14:21:04;5.03;;;2.80;;
55069;SDS011;40967;52.070;8.596;2023-04-15T14:23:31;5.00;;;3.00;;
55069;SDS011;40967;52.070;8.596;2023-04-15T14:25:56;6.07;;;3.40;;
55069;SDS011;40967;52.070;8.596;2023-04-15T14:28:21;5.70;;;3.33;;
55069;SDS011;40967;52.070;8.596;2023-04-15T14:30:50;4.90;;;2.70;;
55069;SDS011;40967;52.070;8.596;2023-04-15T14:33:15;4.45;;;2.60;;
55069;SDS011;40967;52.070;8.596;2023-04-15T14:35:41;4.20;;;2.40;;
55069;SDS011;40967;52.070;8.596;2023-04-15T14:38:06;4.80;;;2.17;;
55069;SDS011;40967;52.070;8.596;2023-04-15T14:40:34;5.32;;;2.85;;
55069;SDS011;40967;52.070;8.596;2023-04-15T14:43:00;4.70;;;3.00;;
55069;SDS011;40967;52.070;8.596;2023-04-15T14:45:25;5.53;;;3.30;;
55069;SDS011;40967;52.070;8.596;2023-04-15T14:47:51;4.80;;;3.10;;
55069;SDS011;40967;52.070;8.596;2023-04-15T14:50:17;6.57;;;4.18;;
55069;SDS011;40967;52.070;8.596;2023-04-15T14:52:45;5.10;;;3.30;;
55069;SDS011;40967;52.070;8.596;2023-04-15T14:55:10;5.72;;;3.13;;
55069;SDS011;40967;52.070;8.596;2023-04-15T14:57:39;5.25;;;3.40;;
55069;SDS011;40967;52.070;8.596;2023-04-15T15:00:06;5.43;;;3.30;;
55069;SDS011;40967;52.070;8.596;2023-04-15T15:02:33;4.80;;;3.10;;
55069;SDS011;40967;52.070;8.596;2023-04-15T15:05:00;6.00;;;3.65;;
55069;SDS011;40967;52.070;8.596;2023-04-15T15:07:26;5.25;;;3.05;;
55069;SDS011;40967;52.070;8.596;2023-04-15T15:09:53;5.72;;;3.33;;
55069;SDS011;40967;52.070;8.596;2023-04-15T15:12:18;5.03;;;3.10;;